Time;durP1;ratioP1;P1;durP2;ratioP2;P2;SDS_P1;SDS_P2;PMS_P1;PMS_P2;Temp;Humidity;BMP_temperature;BMP_pressure;BME280_temperature;BME280_humidity;BME280_pressure;Samples;Min_cycle;Max_cycle;Signal;HPM_P1;HPM_P2
2021/12/15 00:02:00;;;;;;;;;;;10.00;99.90;;;;;;4167813;28;20247;-65
2021/12/15 00:04:01;;;;;;;;;;;10.00;99.90;;;;;;4168382;28;19911;-65
2021/12/15 00:06:03;;;;;;;;;;;10.10;99.90;;;;;;4167586;28;19905;-65
2021/12/15 00:08:04;;;;;;;;;;;10.10;99.90;;;;;;4168278;28;19909;-65
2021/12/15 00:10:05;;;;;;;;;;;10.10;99.90;;;;;;4168340;28;20240;-65
2021/12/15 00:12:06;;;;;;;;;;;10.10;99.90;;;;;;4167745;28;19905;-65
2021/12/15 00:14:09;;;;;;;;;;;10.10;99.90;;;;;;4168198;28;19917;-65
2021/12/15 00:16:10;;;;;;;;;;;10.10;99.90;;;;;;4167700;28;19994;-65
2021/12/15 00:18:11;;;;;;;;;;;10.00;99.90;;;;;;4168272;28;19908;-65
2021/12/15 00:20:15;;;;;;;;;;;10.00;99.90;;;;;;4167257;28;20319;-65
2021/12/15 00:22:16;;;;;;;;;;;10.00;99.90;;;;;;4168267;28;19905;-65
2021/12/15 00:24:16;;;;;;;;;;;10.00;99.90;;;;;;4167912;28;19932;-65
2021/12/15 00:26:18;;;;;;;;;;;10.00;99.90;;;;;;4167274;28;19909;-65
2021/12/15 00:28:18;;;;;;;;;;;10.00;99.90;;;;;;4167930;28;19927;-65
2021/12/15 00:30:19;;;;;;;;;;;10.10;99.90;;;;;;4167130;28;19941;-65
2021/12/15 00:32:19;;;;;;;;;;;10.10;99.90;;;;;;4167870;28;19905;-65
2021/12/15 00:34:21;;;;;;;;;;;10.00;99.90;;;;;;4167872;28;19909;-65
2021/12/15 00:36:21;;;;;;;;;;;10.00;99.90;;;;;;4167543;28;19905;-65
2021/12/15 00:38:22;;;;;;;;;;;10.00;99.90;;;;;;4167764;28;19912;-65
2021/12/15 00:40:24;;;;;;;;;;;10.00;99.90;;;;;;4166978;28;19963;-65
2021/12/15 00:42:25;;;;;;;;;;;10.00;99.90;;;;;;4167773;28;19912;-65
2021/12/15 00:44:25;;;;;;;;;;;10.00;99.90;;;;;;4167663;28;20391;-65
2021/12/15 00:46:26;;;;;;;;;;;10.00;99.90;;;;;;4167204;28;20381;-65
2021/12/15 00:48:26;;;;;;;;;;;9.90;99.90;;;;;;4167772;28;19915;-65
2021/12/15 00:50:29;;;;;;;;;;;9.90;99.90;;;;;;4167026;28;19941;-65
2021/12/15 00:52:29;;;;;;;;;;;10.00;99.90;;;;;;4167195;28;20367;-65
2021/12/15 00:54:30;;;;;;;;;;;10.00;99.90;;;;;;4167958;28;19905;-65
2021/12/15 00:56:30;;;;;;;;;;;9.90;99.90;;;;;;4166635;28;20278;-65
2021/12/15 00:58:31;;;;;;;;;;;10.00;99.90;;;;;;4167674;28;19912;-65
2021/12/15 01:00:34;;;;;;;;;;;10.00;99.90;;;;;;4165924;28;20384;-65
2021/12/15 01:02:35;;;;;;;;;;;9.90;99.90;;;;;;4167498;28;20390;-64
2021/12/15 01:04:35;;;;;;;;;;;10.00;99.90;;;;;;4167190;28;19905;-65
2021/12/15 01:06:38;;;;;;;;;;;10.00;99.90;;;;;;4166655;28;19909;-65
2021/12/15 01:08:42;;;;;;;;;;;10.00;99.90;;;;;;4167342;28;20341;-65
2021/12/15 01:20:01;;;;;;;;;;;10.00;99.90;;;;;;4171578;28;19944;-65
2021/12/15 01:21:55;;;;;;;;;;;10.00;99.90;;;;;;4148082;28;19947;-65
2021/12/15 01:23:56;;;;;;;;;;;9.90;99.90;;;;;;4150033;28;19912;-65
2021/12/15 01:26:02;;;;;;;;;;;9.90;99.90;;;;;;4149235;28;19988;-65
2021/12/15 01:28:03;;;;;;;;;;;10.00;99.90;;;;;;4150136;28;19944;-65
2021/12/15 01:30:06;;;;;;;;;;;9.90;99.90;;;;;;4149901;28;19959;-65
2021/12/15 01:32:07;;;;;;;;;;;10.00;99.90;;;;;;4149662;28;19944;-65
2021/12/15 01:34:07;;;;;;;;;;;10.00;99.90;;;;;;4149608;28;19920;-65
2021/12/15 01:36:09;;;;;;;;;;;10.00;99.90;;;;;;4149223;28;19909;-65
2021/12/15 01:38:09;;;;;;;;;;;9.90;99.90;;;;;;4150136;28;19906;-65
2021/12/15 01:40:18;;;;;;;;;;;9.90;99.90;;;;;;4148959;28;20240;-65
2021/12/15 01:42:18;;;;;;;;;;;10.00;99.90;;;;;;4150231;28;19905;-65
2021/12/15 01:48:41;;;;;;;;;;;9.90;99.90;;;;;;4149659;28;19905;-65
2021/12/15 01:50:42;;;;;;;;;;;9.90;99.90;;;;;;4148819;28;19912;-65
2021/12/15 01:52:43;;;;;;;;;;;9.90;99.90;;;;;;4149243;28;20008;-65
2021/12/15 01:54:46;;;;;;;;;;;9.90;99.90;;;;;;4149535;28;19905;-65
2021/12/15 01:56:46;;;;;;;;;;;9.90;99.90;;;;;;4148939;28;19913;-65
2021/12/15 01:58:47;;;;;;;;;;;9.90;99.90;;;;;;4149256;28;19909;-65
2021/12/15 02:00:59;;;;;;;;;;;9.90;99.90;;;;;;4149061;28;19905;-65
2021/12/15 02:02:59;;;;;;;;;;;9.90;99.90;;;;;;4149327;28;19911;-65
2021/12/15 02:05:00;;;;;;;;;;;9.90;99.90;;;;;;4149429;28;19940;-65
2021/12/15 02:07:02;;;;;;;;;;;9.90;99.90;;;;;;4148732;28;19916;-65
2021/12/15 02:09:04;;;;;;;;;;;9.90;99.90;;;;;;4149274;28;20007;-65
2021/12/15 02:11:06;;;;;;;;;;;9.90;99.90;;;;;;4147891;28;19911;-65
2021/12/15 02:13:07;;;;;;;;;;;9.90;99.90;;;;;;4149016;28;19913;-65
2021/12/15 02:15:10;;;;;;;;;;;9.90;99.90;;;;;;4148552;28;20395;-65
2021/12/15 02:17:10;;;;;;;;;;;9.90;99.90;;;;;;4154362;28;19944;-65
2021/12/15 02:19:11;;;;;;;;;;;9.90;99.90;;;;;;4165389;28;19912;-65
2021/12/15 02:21:15;;;;;;;;;;;9.90;99.90;;;;;;4164498;28;19912;-65
2021/12/15 02:23:17;;;;;;;;;;;9.80;99.90;;;;;;4165209;28;19909;-65
2021/12/15 02:25:18;;;;;;;;;;;9.80;99.90;;;;;;4164957;28;19921;-65
2021/12/15 02:27:18;;;;;;;;;;;9.80;99.90;;;;;;4165602;28;20012;-65
2021/12/15 02:29:21;;;;;;;;;;;9.80;99.90;;;;;;4165640;28;19905;-65
2021/12/15 02:31:56;;;;;;;;;;;9.90;99.90;;;;;;4164520;28;19992;-65
2021/12/15 02:34:07;;;;;;;;;;;9.90;99.90;;;;;;4163924;28;19920;-65
2021/12/15 02:38:28;;;;;;;;;;;9.80;99.90;;;;;;4165407;28;20347;-65
2021/12/15 02:40:30;;;;;;;;;;;9.80;99.90;;;;;;4158012;28;19912;-65
2021/12/15 02:42:33;;;;;;;;;;;9.80;99.90;;;;;;4149586;28;19909;-65
2021/12/15 02:44:33;;;;;;;;;;;9.90;99.90;;;;;;4149735;28;20252;-65
2021/12/15 02:46:34;;;;;;;;;;;9.90;99.90;;;;;;4149012;28;20006;-65
2021/12/15 02:48:35;;;;;;;;;;;9.90;99.90;;;;;;4149520;28;19960;-65
2021/12/15 02:50:37;;;;;;;;;;;9.90;99.90;;;;;;4148665;28;19909;-65
2021/12/15 02:52:38;;;;;;;;;;;9.90;99.90;;;;;;4149180;28;19924;-65
2021/12/15 02:54:38;;;;;;;;;;;9.90;99.90;;;;;;4149336;28;20283;-65
2021/12/15 02:56:40;;;;;;;;;;;9.90;99.90;;;;;;4148544;28;19909;-65
2021/12/15 02:58:56;;;;;;;;;;;9.90;99.90;;;;;;4149360;28;19912;-65
2021/12/15 03:01:02;;;;;;;;;;;9.80;99.90;;;;;;4148508;28;19912;-65
2021/12/15 03:03:29;;;;;;;;;;;9.80;99.90;;;;;;4149249;28;20353;-65
2021/12/15 03:05:36;;;;;;;;;;;9.80;99.90;;;;;;4148825;28;19909;-65
2021/12/15 03:07:54;;;;;;;;;;;9.80;99.90;;;;;;4149193;28;19968;-65
2021/12/15 03:16:57;;;;;;;;;;;9.80;99.90;;;;;;4148634;28;20324;-65
2021/12/15 03:18:58;;;;;;;;;;;9.80;99.90;;;;;;4149067;28;19920;-65
2021/12/15 03:21:23;;;;;;;;;;;9.80;99.90;;;;;;4148747;28;19971;-65
2021/12/15 03:23:28;;;;;;;;;;;9.80;99.90;;;;;;4143815;28;19905;-65
2021/12/15 03:25:31;;;;;;;;;;;9.80;99.90;;;;;;4148266;28;19909;-65
2021/12/15 03:38:55;;;;;;;;;;;9.80;99.90;;;;;;4149813;28;19905;-65
2021/12/15 03:40:56;;;;;;;;;;;9.80;99.90;;;;;;4147235;28;20272;-65
2021/12/15 03:43:02;;;;;;;;;;;9.80;99.90;;;;;;4149213;28;19913;-65
2021/12/15 03:45:06;;;;;;;;;;;9.90;99.90;;;;;;4148901;28;20372;-66
2021/12/15 03:47:09;;;;;;;;;;;9.80;99.90;;;;;;4148861;28;20036;-65
2021/12/15 03:49:10;;;;;;;;;;;9.80;99.90;;;;;;4148843;28;19952;-65
2021/12/15 03:51:12;;;;;;;;;;;9.80;99.90;;;;;;4148190;28;19910;-64
2021/12/15 03:53:14;;;;;;;;;;;9.90;99.90;;;;;;4148406;28;19944;-65
2021/12/15 03:55:15;;;;;;;;;;;9.80;99.90;;;;;;4148033;28;19905;-65
2021/12/15 03:57:16;;;;;;;;;;;9.80;99.90;;;;;;4147803;28;20364;-65
2021/12/15 03:59:19;;;;;;;;;;;9.80;99.90;;;;;;4148730;28;19910;-64
2021/12/15 04:01:20;;;;;;;;;;;9.70;99.90;;;;;;4148474;28;19948;-65
2021/12/15 04:03:31;;;;;;;;;;;9.70;99.90;;;;;;4148852;28;19992;-65
2021/12/15 04:05:32;;;;;;;;;;;9.70;99.90;;;;;;4148230;28;20342;-65
2021/12/15 04:07:32;;;;;;;;;;;9.80;99.90;;;;;;4148903;28;19913;-64
2021/12/15 04:09:33;;;;;;;;;;;9.80;99.90;;;;;;4148874;28;19910;-65
2021/12/15 04:11:35;;;;;;;;;;;9.80;99.90;;;;;;4147917;28;19917;-65
2021/12/15 04:13:37;;;;;;;;;;;9.80;99.90;;;;;;4148594;28;19909;-64
2021/12/15 04:15:53;;;;;;;;;;;9.80;99.90;;;;;;4148125;28;20338;-65
2021/12/15 04:17:55;;;;;;;;;;;9.80;99.90;;;;;;4148842;28;19960;-65
2021/12/15 04:19:57;;;;;;;;;;;9.80;99.90;;;;;;4148909;28;19905;-65
2021/12/15 04:21:58;;;;;;;;;;;9.80;99.90;;;;;;4147764;28;19909;-64
2021/12/15 04:23:59;;;;;;;;;;;9.70;99.90;;;;;;4148541;28;19912;-65
2021/12/15 04:26:00;;;;;;;;;;;9.80;99.90;;;;;;4148004;28;20371;-65
2021/12/15 04:28:04;;;;;;;;;;;9.80;99.90;;;;;;4148687;28;19960;-64
2021/12/15 04:30:06;;;;;;;;;;;9.80;99.90;;;;;;4148498;28;19905;-65
2021/12/15 04:32:09;;;;;;;;;;;9.80;99.90;;;;;;4148430;28;20344;-64
2021/12/15 04:34:11;;;;;;;;;;;9.70;99.90;;;;;;4148385;28;19916;-64
2021/12/15 04:36:13;;;;;;;;;;;9.70;99.90;;;;;;4150561;28;20352;-64
2021/12/15 04:38:14;;;;;;;;;;;9.80;99.90;;;;;;4151369;28;19905;-64
2021/12/15 04:40:15;;;;;;;;;;;9.80;99.90;;;;;;4150653;28;19951;-65
2021/12/15 04:42:18;;;;;;;;;;;9.70;99.90;;;;;;4151607;28;19912;-64
2021/12/15 04:44:22;;;;;;;;;;;9.80;99.90;;;;;;4151484;28;19952;-64
2021/12/15 04:46:24;;;;;;;;;;;9.80;99.90;;;;;;4150828;28;19906;-64
2021/12/15 04:48:25;;;;;;;;;;;9.80;99.90;;;;;;4151263;28;19909;-64
2021/12/15 04:50:28;;;;;;;;;;;9.80;99.90;;;;;;4150463;28;19963;-64
2021/12/15 04:52:28;;;;;;;;;;;9.70;99.90;;;;;;4151174;28;19906;-64
2021/12/15 04:54:29;;;;;;;;;;;9.70;99.90;;;;;;4151368;28;20398;-65
2021/12/15 04:56:30;;;;;;;;;;;9.70;99.90;;;;;;4150760;28;19917;-64
2021/12/15 04:58:31;;;;;;;;;;;9.70;99.90;;;;;;4151597;28;19905;-64
2021/12/15 05:00:33;;;;;;;;;;;9.70;99.90;;;;;;4150344;28;19910;-65
2021/12/15 05:02:35;;;;;;;;;;;9.70;99.90;;;;;;4150432;28;19913;-64
2021/12/15 05:04:36;;;;;;;;;;;9.70;99.90;;;;;;4150951;28;19945;-64
2021/12/15 05:06:36;;;;;;;;;;;9.70;99.90;;;;;;4150673;28;19912;-64
2021/12/15 05:08:38;;;;;;;;;;;9.80;99.90;;;;;;4150987;28;20283;-64
2021/12/15 05:10:39;;;;;;;;;;;9.70;99.90;;;;;;4150414;28;19912;-65
2021/12/15 05:12:39;;;;;;;;;;;9.80;99.90;;;;;;4150946;28;19936;-65
2021/12/15 05:14:40;;;;;;;;;;;9.70;99.90;;;;;;4151092;28;20003;-64
2021/12/15 05:16:40;;;;;;;;;;;9.70;99.90;;;;;;4150203;28;19905;-64
2021/12/15 05:18:42;;;;;;;;;;;9.80;99.90;;;;;;4150813;28;19912;-64
2021/12/15 05:20:48;;;;;;;;;;;9.70;99.90;;;;;;4150118;28;20008;-64
2021/12/15 05:22:48;;;;;;;;;;;9.80;99.90;;;;;;4150900;28;19996;-64
2021/12/15 05:24:49;;;;;;;;;;;9.70;99.90;;;;;;4150947;28;19912;-64
2021/12/15 05:26:50;;;;;;;;;;;9.70;99.90;;;;;;4150223;28;19905;-64
2021/12/15 05:28:51;;;;;;;;;;;9.80;99.90;;;;;;4150785;28;20395;-64
2021/12/15 05:30:52;;;;;;;;;;;9.80;99.90;;;;;;4149793;28;19909;-65
2021/12/15 05:32:52;;;;;;;;;;;9.80;99.90;;;;;;4150449;28;19913;-64
2021/12/15 05:34:54;;;;;;;;;;;9.80;99.90;;;;;;4150666;28;19912;-64
2021/12/15 05:36:55;;;;;;;;;;;9.80;99.90;;;;;;4149762;28;19905;-64
2021/12/15 05:38:55;;;;;;;;;;;9.80;99.90;;;;;;4150619;28;20260;-64
2021/12/15 05:40:58;;;;;;;;;;;9.80;99.90;;;;;;4149822;28;20399;-64
2021/12/15 05:42:59;;;;;;;;;;;9.80;99.90;;;;;;4150579;28;19905;-64
2021/12/15 05:44:59;;;;;;;;;;;9.80;99.90;;;;;;4150508;28;19912;-64
2021/12/15 05:47:00;;;;;;;;;;;9.80;99.90;;;;;;4149662;28;20007;-64
2021/12/15 05:49:01;;;;;;;;;;;9.70;99.90;;;;;;4150477;28;19906;-64
2021/12/15 05:51:02;;;;;;;;;;;9.80;99.90;;;;;;4149748;28;20332;-64
2021/12/15 05:53:02;;;;;;;;;;;9.80;99.90;;;;;;4149934;28;19913;-64
2021/12/15 05:55:05;;;;;;;;;;;9.80;99.90;;;;;;4150567;28;19906;-65
2021/12/15 05:57:06;;;;;;;;;;;9.80;99.90;;;;;;4149919;28;19910;-64
2021/12/15 05:59:07;;;;;;;;;;;9.80;99.90;;;;;;4150087;28;20368;-64
2021/12/15 06:01:07;;;;;;;;;;;9.80;99.90;;;;;;4149608;28;19945;-64
2021/12/15 06:03:08;;;;;;;;;;;9.80;99.90;;;;;;4150241;28;19912;-64
2021/12/15 06:05:10;;;;;;;;;;;9.90;99.90;;;;;;4149661;28;19905;-65
2021/12/15 06:07:11;;;;;;;;;;;9.80;99.90;;;;;;4149980;28;20379;-64
2021/12/15 06:09:12;;;;;;;;;;;9.80;99.90;;;;;;4150374;28;19905;-64
2021/12/15 06:11:13;;;;;;;;;;;9.90;99.90;;;;;;4149355;28;19905;-64
2021/12/15 06:13:13;;;;;;;;;;;9.80;99.90;;;;;;4149908;28;19916;-64
2021/12/15 06:15:21;;;;;;;;;;;9.90;99.90;;;;;;4148634;28;19916;-65
2021/12/15 06:17:25;;;;;;;;;;;9.80;99.90;;;;;;4149722;28;19912;-64
2021/12/15 06:19:26;;;;;;;;;;;9.90;99.90;;;;;;4149800;28;20311;-64
2021/12/15 06:21:27;;;;;;;;;;;9.80;99.90;;;;;;4149056;28;19916;-64
2021/12/15 06:23:28;;;;;;;;;;;9.90;99.90;;;;;;4149739;28;19910;-64
2021/12/15 06:25:28;;;;;;;;;;;9.90;99.90;;;;;;4149019;28;19909;-64
2021/12/15 06:27:30;;;;;;;;;;;9.90;99.90;;;;;;4149778;28;19913;-64
2021/12/15 06:29:31;;;;;;;;;;;9.80;99.90;;;;;;4149824;28;19905;-64
2021/12/15 06:31:32;;;;;;;;;;;9.90;99.90;;;;;;4149167;28;20357;-64
2021/12/15 06:33:33;;;;;;;;;;;9.90;99.90;;;;;;4149716;28;19915;-64
2021/12/15 06:35:34;;;;;;;;;;;9.90;99.90;;;;;;4148834;28;19913;-64
2021/12/15 06:37:35;;;;;;;;;;;9.90;99.90;;;;;;4149588;28;19910;-64
2021/12/15 06:39:35;;;;;;;;;;;9.90;99.90;;;;;;4149606;28;19912;-64
2021/12/15 06:41:36;;;;;;;;;;;9.90;99.90;;;;;;4148946;28;19905;-64
2021/12/15 06:43:39;;;;;;;;;;;9.90;99.90;;;;;;4149734;28;20443;-64
2021/12/15 06:45:55;;;;;;;;;;;9.90;99.90;;;;;;4148880;28;19912;-65
2021/12/15 06:59:27;;;;;;;;;;;9.90;99.90;;;;;;4149487;28;19913;-65
2021/12/15 07:01:27;;;;;;;;;;;9.90;99.90;;;;;;4148740;28;19913;-65
2021/12/15 07:03:28;;;;;;;;;;;10.00;99.90;;;;;;4149370;28;19905;-65
2021/12/15 07:05:29;;;;;;;;;;;9.90;99.90;;;;;;4148544;28;19916;-65
2021/12/15 07:07:30;;;;;;;;;;;9.90;99.90;;;;;;4149350;28;19928;-64
2021/12/15 07:09:31;;;;;;;;;;;9.90;99.90;;;;;;4149101;28;19909;-65
2021/12/15 07:11:32;;;;;;;;;;;9.90;99.90;;;;;;4148286;28;19999;-65
2021/12/15 07:13:32;;;;;;;;;;;9.90;99.90;;;;;;4149137;28;20260;-65
2021/12/15 07:15:34;;;;;;;;;;;9.80;99.90;;;;;;4148484;28;20268;-65
2021/12/15 07:17:36;;;;;;;;;;;9.80;99.90;;;;;;4149089;28;19909;-65
2021/12/15 07:20:03;;;;;;;;;;;9.90;99.90;;;;;;4148948;28;19959;-65
2021/12/15 07:22:14;;;;;;;;;;;9.90;99.90;;;;;;4148546;28;19921;-65
2021/12/15 07:24:15;;;;;;;;;;;9.90;99.90;;;;;;4149253;28;19906;-65
2021/12/15 07:26:16;;;;;;;;;;;9.90;99.90;;;;;;4148485;28;20344;-65
2021/12/15 07:28:17;;;;;;;;;;;9.90;99.90;;;;;;4149352;28;19913;-64
2021/12/15 07:30:19;;;;;;;;;;;9.90;99.90;;;;;;4148639;28;20003;-65
2021/12/15 07:32:19;;;;;;;;;;;10.00;99.90;;;;;;4149068;28;19928;-64
2021/12/15 07:34:21;;;;;;;;;;;10.00;99.90;;;;;;4149141;28;19940;-64
2021/12/15 07:36:22;;;;;;;;;;;10.00;99.90;;;;;;4148075;28;20279;-65
2021/12/15 07:38:22;;;;;;;;;;;9.90;99.90;;;;;;4149538;28;19906;-64
2021/12/15 07:40:24;;;;;;;;;;;9.90;99.90;;;;;;4148663;28;19909;-64
2021/12/15 07:42:36;;;;;;;;;;;9.90;99.90;;;;;;4149191;28;19905;-65
2021/12/15 07:44:37;;;;;;;;;;;9.90;99.90;;;;;;4147582;28;20269;-65
2021/12/15 07:46:37;;;;;;;;;;;9.90;99.90;;;;;;4147391;28;19936;-65
2021/12/15 07:48:39;;;;;;;;;;;10.00;99.90;;;;;;4148530;28;19910;-65
2021/12/15 07:50:41;;;;;;;;;;;9.90;99.90;;;;;;4148452;28;19992;-65
2021/12/15 07:52:42;;;;;;;;;;;9.90;99.90;;;;;;4148743;28;19905;-64
2021/12/15 07:54:42;;;;;;;;;;;10.00;99.90;;;;;;4149113;28;19957;-65
2021/12/15 07:56:43;;;;;;;;;;;9.90;99.90;;;;;;4148161;28;19905;-64
2021/12/15 07:58:43;;;;;;;;;;;9.90;99.90;;;;;;4149199;28;20575;-65
2021/12/15 08:00:45;;;;;;;;;;;10.00;99.90;;;;;;4148097;28;19980;-65
2021/12/15 08:02:46;;;;;;;;;;;9.90;99.90;;;;;;4149192;28;19918;-65
2021/12/15 08:04:46;;;;;;;;;;;9.90;99.90;;;;;;4148688;28;19953;-65
2021/12/15 08:06:47;;;;;;;;;;;10.00;99.90;;;;;;4148091;28;19910;-64
2021/12/15 08:08:48;;;;;;;;;;;9.90;99.90;;;;;;4149373;28;19992;-64
2021/12/15 08:10:49;;;;;;;;;;;9.90;99.90;;;;;;4151456;28;19999;-65
2021/12/15 08:12:50;;;;;;;;;;;9.90;99.90;;;;;;4151663;28;19905;-65
2021/12/15 08:14:50;;;;;;;;;;;9.90;99.90;;;;;;4151819;28;19979;-65
2021/12/15 08:16:51;;;;;;;;;;;9.90;99.90;;;;;;4151001;28;19905;-64
2021/12/15 08:18:51;;;;;;;;;;;9.90;99.90;;;;;;4151706;28;20272;-65
2021/12/15 08:20:52;;;;;;;;;;;9.90;99.90;;;;;;4151178;28;20280;-65
2021/12/15 08:22:53;;;;;;;;;;;9.90;99.90;;;;;;4151848;28;19905;-65
2021/12/15 08:24:54;;;;;;;;;;;9.90;99.90;;;;;;4151599;28;19905;-64
2021/12/15 08:26:55;;;;;;;;;;;9.90;99.90;;;;;;4151428;28;19906;-65
2021/12/15 08:28:55;;;;;;;;;;;9.90;99.90;;;;;;4151487;28;19913;-64
2021/12/15 08:30:59;;;;;;;;;;;9.90;99.90;;;;;;4151122;28;19920;-65
2021/12/15 08:33:02;;;;;;;;;;;10.00;99.90;;;;;;4151509;28;19914;-65
2021/12/15 08:35:03;;;;;;;;;;;10.00;99.90;;;;;;4151306;28;20000;-68
2021/12/15 08:37:05;;;;;;;;;;;9.90;99.90;;;;;;4151018;28;20367;-65
2021/12/15 08:39:07;;;;;;;;;;;9.90;99.90;;;;;;4151498;28;19906;-65
2021/12/15 08:41:09;;;;;;;;;;;9.90;99.90;;;;;;4150967;28;19909;-64
2021/12/15 08:43:11;;;;;;;;;;;10.00;99.90;;;;;;4151870;28;19905;-64
2021/12/15 08:45:13;;;;;;;;;;;9.90;99.90;;;;;;4146330;28;19906;-65
2021/12/15 08:48:19;;;;;;;;;;;10.00;99.90;;;;;;4162406;28;19929;-64
2021/12/15 08:50:22;;;;;;;;;;;10.00;99.90;;;;;;4154505;28;19917;-63
2021/12/15 08:52:22;;;;;;;;;;;10.00;99.90;;;;;;4155346;28;19967;-63
2021/12/15 08:54:23;;;;;;;;;;;10.00;99.90;;;;;;4170575;28;19913;-63
2021/12/15 08:56:24;;;;;;;;;;;10.00;99.90;;;;;;4152104;28;20450;-65
2021/12/15 08:58:25;;;;;;;;;;;10.00;99.90;;;;;;4155213;28;19913;-64
2021/12/15 09:00:26;;;;;;;;;;;10.00;99.90;;;;;;4154320;28;19913;-65
2021/12/15 09:02:26;;;;;;;;;;;10.00;99.90;;;;;;4155121;28;19920;-64
2021/12/15 09:04:27;;;;;;;;;;;10.00;99.90;;;;;;4155372;28;19914;-63
2021/12/15 09:06:28;;;;;;;;;;;10.00;99.90;;;;;;4154373;28;19921;-64
2021/12/15 09:08:29;;;;;;;;;;;10.00;99.90;;;;;;4154731;28;20386;-63
2021/12/15 09:10:31;;;;;;;;;;;10.00;99.90;;;;;;4154367;28;20276;-63
2021/12/15 09:12:31;;;;;;;;;;;10.00;99.90;;;;;;4154849;28;19918;-64
2021/12/15 09:14:32;;;;;;;;;;;9.90;99.90;;;;;;4154612;28;20319;-64
2021/12/15 09:16:33;;;;;;;;;;;9.90;99.90;;;;;;4153512;28;19913;-64
2021/12/15 09:18:34;;;;;;;;;;;9.90;99.90;;;;;;4154657;28;19921;-64
2021/12/15 09:20:36;;;;;;;;;;;9.90;99.90;;;;;;4153936;28;19913;-64
2021/12/15 09:22:38;;;;;;;;;;;10.00;99.90;;;;;;4154841;28;20442;-64
2021/12/15 09:24:38;;;;;;;;;;;10.00;99.90;;;;;;4154676;28;19968;-64
2021/12/15 09:26:40;;;;;;;;;;;10.00;99.90;;;;;;4153719;28;19928;-65
2021/12/15 09:28:40;;;;;;;;;;;10.00;99.90;;;;;;4154946;28;19914;-64
2021/12/15 09:30:44;;;;;;;;;;;10.00;99.90;;;;;;4154025;28;20295;-65
2021/12/15 09:32:45;;;;;;;;;;;10.00;99.90;;;;;;4154354;28;20331;-65
2021/12/15 09:34:46;;;;;;;;;;;10.00;99.90;;;;;;4154518;28;20044;-64
2021/12/15 09:36:50;;;;;;;;;;;10.00;99.90;;;;;;4153736;28;20044;-63
2021/12/15 09:38:53;;;;;;;;;;;10.00;99.90;;;;;;4154577;28;19920;-64
2021/12/15 09:41:38;;;;;;;31.73;18.42;;;10.00;99.90;;;;;;4186958;28;20421;-64
2021/12/15 09:43:40;;;;;;;27.35;16.35;;;10.00;99.90;;;;;;4187754;28;20068;-64
2021/12/15 09:48:05;;;;;;;30.75;18.08;;;10.00;99.90;;;;;;4187507;28;20111;-64
2021/12/15 10:04:08;;;;;;;27.92;16.25;;;10.00;99.90;;;;;;4187188;28;20376;-64
2021/12/15 10:18:29;;;;;;;32.35;18.10;;;10.10;99.90;;;;;;4185340;28;20045;-64
2021/12/15 10:20:31;;;;;;;29.00;17.10;;;10.10;99.90;;;;;;4186234;28;20061;-65
2021/12/15 10:22:41;;;;;;;30.63;18.17;;;10.10;99.90;;;;;;4187372;28;20041;-64
2021/12/15 10:24:54;;;;;;;28.40;16.77;;;10.10;99.90;;;;;;4186788;28;20037;-64
2021/12/15 10:26:57;;;;;;;24.10;15.18;;;10.10;99.90;;;;;;4185982;28;20037;-64
2021/12/15 10:29:07;;;;;;;29.48;17.92;;;10.20;99.90;;;;;;4186885;28;20116;-67
2021/12/15 10:31:13;;;;;;;34.90;18.95;;;10.20;99.90;;;;;;4186287;28;20025;-64
2021/12/15 10:33:20;;;;;;;32.70;18.70;;;10.20;99.90;;;;;;4186845;28;20037;-64
2021/12/15 10:35:26;;;;;;;28.80;17.10;;;10.20;99.90;;;;;;4185881;28;20036;-64
2021/12/15 10:37:28;;;;;;;28.77;17.38;;;10.20;99.90;;;;;;4186677;28;20478;-65
2021/12/15 10:39:28;;;;;;;29.15;16.35;;;10.20;99.90;;;;;;4186778;28;20376;-64
2021/12/15 10:41:38;;;;;;;28.80;17.20;;;10.20;99.90;;;;;;4185622;28;20174;-64
2021/12/15 10:43:56;;;;;;;27.90;16.98;;;10.20;99.90;;;;;;4186544;28;20048;-65
2021/12/15 10:46:03;;;;;;;32.55;19.50;;;10.20;99.90;;;;;;4185554;28;20032;-66
2021/12/15 10:48:09;;;;;;;35.63;21.52;;;10.20;99.90;;;;;;4186411;28;20407;-64
2021/12/15 10:50:22;;;;;;;33.35;19.85;;;10.20;99.90;;;;;;4186055;28;20037;-65
2021/12/15 10:52:23;;;;;;;34.17;19.60;;;10.30;99.90;;;;;;4177529;28;20060;-65
2021/12/15 10:54:27;;;;;;;35.25;19.83;;;10.20;99.90;;;;;;4175421;28;20033;-64
2021/12/15 10:56:32;;;;;;;30.95;19.02;;;10.20;99.90;;;;;;4174371;28;20426;-64
2021/12/15 10:58:42;;;;;;;34.13;19.55;;;10.30;99.90;;;;;;4175680;28;20444;-64
2021/12/15 11:00:43;;;;;;;35.80;20.40;;;10.20;99.90;;;;;;4173893;28;20403;-65
2021/12/15 11:02:44;;;;;;;32.63;19.58;;;10.20;99.90;;;;;;4174806;28;20045;-65
2021/12/15 11:04:48;;;;;;;38.35;21.50;;;10.30;99.90;;;;;;4175016;28;20032;-64
2021/12/15 11:07:20;;;;;;;38.75;21.77;;;10.20;99.90;;;;;;4174080;28;20092;-65
2021/12/15 11:09:23;;;;;;;35.42;19.90;;;10.20;99.90;;;;;;4175009;28;20619;-65
2021/12/15 11:11:29;;;;;;;36.00;21.23;;;10.20;99.90;;;;;;4174248;28;20033;-65
2021/12/15 11:13:31;;;;;;;29.77;17.70;;;10.20;99.90;;;;;;4175236;28;20033;-65
2021/12/15 11:15:43;;;;;;;33.03;19.93;;;10.30;99.90;;;;;;4174255;28;20036;-64
2021/12/15 11:17:47;;;;;;;31.05;18.10;;;10.30;99.90;;;;;;4175273;28;20036;-65
2021/12/15 11:20:14;;;;;;;26.75;17.67;;;10.30;99.90;;;;;;4174828;28;20133;-64
2021/12/15 11:22:50;;;;;;;30.08;17.65;;;10.30;99.90;;;;;;4167335;28;20049;-64
2021/12/15 11:24:50;;;;;;;26.52;15.93;;;10.30;99.90;;;;;;4139833;28;20037;-65
2021/12/15 11:27:15;;;;;;;27.65;17.45;;;10.30;99.90;;;;;;4157588;28;20044;-64
2021/12/15 11:29:35;;;;;;;29.52;16.63;;;10.30;99.90;;;;;;4174817;28;20067;-64
2021/12/15 11:31:36;;;;;;;28.42;16.52;;;10.30;99.90;;;;;;4174142;28;20040;-65
2021/12/15 11:33:48;;;;;;;27.90;17.15;;;10.30;99.90;;;;;;4175164;28;20033;-64
2021/12/15 11:36:03;;;;;;;24.08;15.25;;;10.30;99.90;;;;;;4173653;28;20558;-64
2021/12/15 11:38:10;;;;;;;24.58;14.93;;;10.40;99.90;;;;;;4179125;28;20047;-64
2021/12/15 11:40:12;;;;;;;28.05;17.58;;;10.40;99.90;;;;;;4178831;28;20060;-64
2021/12/15 11:42:13;;;;;;;26.23;16.23;;;10.40;99.90;;;;;;4182439;28;20116;-64
2021/12/15 11:44:19;;;;;;;27.08;15.23;;;10.40;99.90;;;;;;4182797;28;20494;-64
2021/12/15 11:46:51;;;;;;;28.05;16.70;;;10.40;99.90;;;;;;4181985;28;20025;-64
2021/12/15 11:49:09;;;;;;;29.10;16.52;;;10.40;99.90;;;;;;4182716;28;20041;-64
2021/12/15 11:51:10;;;;;;;25.40;15.63;;;10.40;99.90;;;;;;4182498;28;20092;-64
2021/12/15 11:53:36;;;;;;;25.98;15.10;;;10.40;99.90;;;;;;4183053;28;20047;-64
2021/12/15 11:55:37;;;;;;;23.30;14.27;;;10.50;99.90;;;;;;4182234;28;20502;-64
2021/12/15 11:57:37;;;;;;;27.05;16.40;;;10.50;99.90;;;;;;4182968;28;20108;-64
2021/12/15 11:59:44;;;;;;;27.75;15.88;;;10.50;99.90;;;;;;4182774;28;20527;-64
2021/12/15 12:01:52;;;;;;;23.33;14.63;;;10.50;99.90;;;;;;4182347;28;20064;-64
2021/12/15 12:04:13;;;;;;;29.20;15.70;;;10.50;99.90;;;;;;4181770;28;20074;-64
2021/12/15 12:06:24;;;;;;;22.77;14.00;;;10.60;99.90;;;;;;4181630;28;20029;-64
2021/12/15 12:08:27;;;;;;;24.90;14.50;;;10.60;99.90;;;;;;4182554;28;20472;-64
2021/12/15 12:10:43;;;;;;;27.70;16.75;;;10.60;99.90;;;;;;4182182;28;20116;-64
2021/12/15 12:12:55;;;;;;;28.75;16.35;;;10.60;99.90;;;;;;4182511;28;20083;-64
2021/12/15 12:14:56;;;;;;;26.90;15.77;;;10.60;99.90;;;;;;4182673;28;20436;-64
2021/12/15 12:16:58;;;;;;;31.45;17.58;;;10.60;99.90;;;;;;4182094;28;20036;-64
2021/12/15 12:18:59;;;;;;;30.35;17.65;;;10.60;99.90;;;;;;4182353;28;20029;-64
2021/12/15 12:21:07;;;;;;;28.55;16.80;;;10.70;99.90;;;;;;4181748;28;20033;-64
2021/12/15 12:23:11;;;;;;;31.55;18.00;;;10.60;99.90;;;;;;4182522;28;20032;-64
2021/12/15 12:25:24;;;;;;;30.85;18.95;;;10.70;99.90;;;;;;4181174;28;20033;-65
2021/12/15 12:27:28;;;;;;;30.95;17.38;;;10.60;99.90;;;;;;4182417;28;20067;-64
2021/12/15 12:29:30;;;;;;;30.58;17.83;;;10.70;99.90;;;;;;4182527;28;20029;-64
2021/12/15 12:31:30;;;;;;;28.13;16.55;;;10.60;99.90;;;;;;4181429;28;20483;-64
2021/12/15 12:33:34;;;;;;;32.35;17.40;;;10.60;99.90;;;;;;4182126;28;20033;-64
2021/12/15 12:35:39;;;;;;;28.63;17.35;;;10.60;99.90;;;;;;4181182;28;20090;-64
2021/12/15 12:37:39;;;;;;;32.55;17.17;;;10.60;99.90;;;;;;4182313;28;20047;-64
2021/12/15 12:39:42;;;;;;;26.83;16.40;;;10.60;99.90;;;;;;4181906;28;20041;-64
2021/12/15 12:41:46;;;;;;;34.28;18.50;;;10.70;99.90;;;;;;4181499;28;20565;-64
2021/12/15 12:43:50;;;;;;;34.08;19.02;;;10.70;99.90;;;;;;4182034;28;20036;-64
2021/12/15 12:46:07;;;;;;;33.60;19.02;;;10.70;99.90;;;;;;4180992;28;20029;-64
2021/12/15 13:00:50;;;;;;;37.03;19.98;;;10.80;99.90;;;;;;4181030;28;20041;-64
2021/12/15 13:03:00;;;;;;;33.33;18.58;;;10.70;99.90;;;;;;4181471;28;20040;-64
2021/12/15 13:05:01;;;;;;;29.90;17.65;;;10.70;99.90;;;;;;4181619;28;20025;-64
2021/12/15 13:07:01;;;;;;;33.15;18.67;;;10.80;99.90;;;;;;4181158;28;20039;-64
2021/12/15 13:09:04;;;;;;;32.95;17.55;;;10.80;99.90;;;;;;4181327;28;20037;-64